createdAt,value
2019-03-03T00:00:10.249Z,9.70
2019-03-03T00:02:39.967Z,9.80
2019-03-03T00:05:07.690Z,9.70
2019-03-03T00:07:36.627Z,9.70
2019-03-03T00:10:06.426Z,9.80
2019-03-03T00:12:34.192Z,9.70
2019-03-03T00:15:01.907Z,9.70
2019-03-03T00:17:29.926Z,9.70
2019-03-03T00:19:57.534Z,9.70
2019-03-03T00:22:28.857Z,9.70
2019-03-03T00:24:56.627Z,9.70
2019-03-03T00:27:24.236Z,9.80
2019-03-03T00:29:51.866Z,9.80
2019-03-03T00:32:19.590Z,9.80
2019-03-03T00:34:49.962Z,9.80
2019-03-03T00:37:43.098Z,9.80
2019-03-03T00:40:30.510Z,9.80
2019-03-03T00:43:08.476Z,9.80
2019-03-03T00:45:47.122Z,9.80
2019-03-03T00:48:26.583Z,9.80
2019-03-03T00:51:09.361Z,9.80
2019-03-03T00:53:59.326Z,9.90
2019-03-03T00:56:35.418Z,9.80
2019-03-03T00:59:28.252Z,9.80
2019-03-03T01:02:02.582Z,9.80
2019-03-03T01:04:56.816Z,9.80
2019-03-03T01:07:46.496Z,9.80
2019-03-03T01:10:28.513Z,9.80
2019-03-03T01:13:14.024Z,9.80
2019-03-03T01:15:55.603Z,9.70
2019-03-03T01:18:55.034Z,9.80
2019-03-03T01:21:51.575Z,9.80
2019-03-03T01:24:54.811Z,9.70
2019-03-03T01:27:23.661Z,9.70
2019-03-03T01:29:51.248Z,9.70
2019-03-03T01:32:18.878Z,9.80
2019-03-03T01:34:46.497Z,9.70
2019-03-03T01:37:14.327Z,9.70
2019-03-03T01:39:41.980Z,9.80
2019-03-03T01:42:10.649Z,9.70
2019-03-03T01:44:38.278Z,9.70
2019-03-03T01:47:05.888Z,9.70
2019-03-03T01:49:33.554Z,9.70
2019-03-03T01:52:01.274Z,9.70
2019-03-03T01:54:29.023Z,9.70
2019-03-03T01:56:56.624Z,9.70
2019-03-03T01:59:24.293Z,9.70
2019-03-03T02:01:51.998Z,9.60
2019-03-03T02:04:19.692Z,9.60
2019-03-03T02:06:47.231Z,9.60
2019-03-03T02:09:14.835Z,9.60
2019-03-03T02:11:42.488Z,9.70
2019-03-03T02:14:10.187Z,9.60
2019-03-03T02:16:38.799Z,9.60
2019-03-03T02:19:06.436Z,9.60
2019-03-03T02:21:35.266Z,9.70
2019-03-03T02:24:02.890Z,9.70
2019-03-03T02:26:30.533Z,9.70
2019-03-03T02:28:59.238Z,9.70
2019-03-03T02:31:26.824Z,9.70
2019-03-03T02:33:54.502Z,9.70
2019-03-03T02:36:22.013Z,9.80
2019-03-03T02:38:49.704Z,9.70
2019-03-03T02:41:17.362Z,9.80
2019-03-03T02:43:45.824Z,9.70
2019-03-03T02:46:13.533Z,9.70
2019-03-03T02:48:42.122Z,9.70
2019-03-03T02:51:09.858Z,9.70
2019-03-03T02:53:37.476Z,9.70
2019-03-03T02:56:05.092Z,9.70
2019-03-03T02:58:32.832Z,9.70
2019-03-03T03:01:06.138Z,9.70
2019-03-03T03:03:33.684Z,9.80
2019-03-03T03:06:23.787Z,9.80
2019-03-03T03:09:09.935Z,9.80
2019-03-03T03:11:57.591Z,9.80
2019-03-03T03:14:48.842Z,9.80
2019-03-03T03:17:26.303Z,9.80
2019-03-03T03:20:20.203Z,9.80
2019-03-03T03:23:09.916Z,9.80
2019-03-03T03:25:53.914Z,9.80
2019-03-03T03:28:28.755Z,9.70
2019-03-03T03:31:28.353Z,9.70
2019-03-03T03:34:02.594Z,9.70
2019-03-03T03:36:48.811Z,9.70
2019-03-03T03:39:34.982Z,9.70
2019-03-03T03:42:22.173Z,9.70
2019-03-03T03:45:15.663Z,9.60
2019-03-03T03:47:59.801Z,9.60
2019-03-03T03:50:45.776Z,9.60
2019-03-03T03:53:28.985Z,9.60
2019-03-03T03:56:15.013Z,9.60
2019-03-03T03:59:01.235Z,9.50
2019-03-03T04:01:36.736Z,9.60
2019-03-03T04:04:15.459Z,9.60
2019-03-03T04:06:51.940Z,9.60
2019-03-03T04:09:39.203Z,9.60
2019-03-03T04:12:16.444Z,9.60
2019-03-03T04:15:02.450Z,9.60
2019-03-03T04:17:43.862Z,9.50
2019-03-03T04:20:20.941Z,9.50
2019-03-03T04:22:59.863Z,9.50
2019-03-03T04:25:45.804Z,9.50
2019-03-03T04:28:25.670Z,9.60
2019-03-03T04:31:18.907Z,9.50
2019-03-03T04:34:30.121Z,9.50
2019-03-03T04:37:35.749Z,9.50
2019-03-03T04:40:11.514Z,9.50
2019-03-03T04:42:57.301Z,9.50
2019-03-03T04:45:50.541Z,9.50
2019-03-03T04:48:36.109Z,9.50
2019-03-03T04:51:23.287Z,9.50
2019-03-03T04:54:11.542Z,9.50
2019-03-03T04:56:54.327Z,9.50
2019-03-03T04:59:47.917Z,9.50
2019-03-03T05:02:25.019Z,9.50
2019-03-03T05:05:21.387Z,9.50
2019-03-03T05:08:00.059Z,9.50
2019-03-03T05:10:42.687Z,9.50
2019-03-03T05:13:29.829Z,9.60
2019-03-03T05:16:17.264Z,9.60
2019-03-03T05:19:06.886Z,9.60
2019-03-03T05:21:34.602Z,9.60
2019-03-03T05:24:02.446Z,9.60
2019-03-03T05:26:30.078Z,9.60
2019-03-03T05:28:57.708Z,9.60
2019-03-03T05:31:25.381Z,9.60
2019-03-03T05:33:52.963Z,9.60
2019-03-03T05:36:20.643Z,9.60
2019-03-03T05:38:48.350Z,9.60
2019-03-03T05:41:16.082Z,9.60
2019-03-03T05:43:43.787Z,9.70
2019-03-03T05:46:11.414Z,9.60
2019-03-03T05:48:39.003Z,9.60
2019-03-03T05:51:06.562Z,9.70
2019-03-03T05:53:34.716Z,9.70
2019-03-03T05:56:02.373Z,9.70
2019-03-03T05:58:30.005Z,9.70
2019-03-03T06:00:57.592Z,9.70
2019-03-03T06:03:25.308Z,9.70
2019-03-03T06:05:52.923Z,9.70
2019-03-03T06:08:20.617Z,9.80
2019-03-03T06:10:48.307Z,9.70
2019-03-03T06:13:16.120Z,9.80
2019-03-03T06:15:43.769Z,9.80
2019-03-03T06:18:11.474Z,9.90
2019-03-03T06:20:39.119Z,9.80
2019-03-03T06:23:06.884Z,9.90
2019-03-03T06:25:34.458Z,9.80
2019-03-03T06:28:02.368Z,9.80
2019-03-03T06:30:30.150Z,9.80
2019-03-03T06:32:57.809Z,9.90
2019-03-03T06:35:25.437Z,9.90
2019-03-03T06:37:53.135Z,9.90
2019-03-03T06:40:20.745Z,9.90
2019-03-03T06:42:48.348Z,9.90
2019-03-03T06:45:15.990Z,9.80
2019-03-03T06:48:03.029Z,9.70
2019-03-03T06:50:33.900Z,9.70
2019-03-03T06:53:01.530Z,9.70
2019-03-03T06:55:29.041Z,9.70
2019-03-03T06:57:56.648Z,9.70
2019-03-03T07:00:24.280Z,9.70
2019-03-03T07:02:51.925Z,9.70
2019-03-03T07:05:20.422Z,9.80
2019-03-03T07:07:48.339Z,9.80
2019-03-03T07:10:15.923Z,9.80
2019-03-03T07:12:43.796Z,9.80
2019-03-03T07:15:13.361Z,9.80
2019-03-03T07:17:40.979Z,9.80
2019-03-03T07:20:09.398Z,9.90
2019-03-03T07:22:37.026Z,9.90
2019-03-03T07:25:05.668Z,9.80
2019-03-03T07:27:33.582Z,9.80
2019-03-03T07:30:01.197Z,9.80
2019-03-03T07:32:29.011Z,9.90
2019-03-03T07:34:57.105Z,9.80
2019-03-03T07:37:24.717Z,9.80
2019-03-03T07:39:53.447Z,9.90
2019-03-03T07:42:21.444Z,9.90
2019-03-03T07:44:49.135Z,10.00
2019-03-03T07:47:16.886Z,10.00
2019-03-03T07:49:44.505Z,10.10
2019-03-03T07:52:13.102Z,10.10
2019-03-03T07:54:40.688Z,10.20
2019-03-03T07:57:08.314Z,10.20
2019-03-03T07:59:35.906Z,10.20
2019-03-03T08:02:27.216Z,10.20
2019-03-03T08:04:54.931Z,10.20
2019-03-03T08:07:22.582Z,10.30
2019-03-03T08:09:50.221Z,10.30
2019-03-03T08:12:17.783Z,10.30
2019-03-03T08:14:45.534Z,10.30
2019-03-03T08:17:13.266Z,10.40
2019-03-03T08:19:40.931Z,10.30
2019-03-03T08:22:08.538Z,10.40
2019-03-03T08:24:36.149Z,10.40
2019-03-03T08:27:03.780Z,10.40
2019-03-03T08:29:31.407Z,10.40
2019-03-03T08:31:59.044Z,10.50
2019-03-03T08:34:26.716Z,10.40
2019-03-03T08:36:54.491Z,10.50
2019-03-03T08:39:23.603Z,10.60
2019-03-03T08:42:33.982Z,10.60
2019-03-03T08:45:21.223Z,10.60
2019-03-03T08:47:55.678Z,10.70
2019-03-03T08:50:45.354Z,10.80
2019-03-03T08:53:22.786Z,10.90
2019-03-03T08:56:09.039Z,10.90
2019-03-03T08:58:42.891Z,10.90
2019-03-03T09:01:44.091Z,10.90
2019-03-03T09:04:34.322Z,10.90
2019-03-03T09:07:20.563Z,10.90
2019-03-03T09:10:03.475Z,10.80
2019-03-03T09:12:47.502Z,10.90
2019-03-03T09:15:46.997Z,11.00
2019-03-03T09:18:34.187Z,11.00
2019-03-03T09:21:12.895Z,11.00
2019-03-03T09:24:03.408Z,11.10
2019-03-03T09:26:56.750Z,11.10
2019-03-03T09:29:32.552Z,11.20
2019-03-03T09:32:19.721Z,11.30
2019-03-03T09:35:19.144Z,11.30
2019-03-03T09:38:05.177Z,11.30
2019-03-03T09:40:42.588Z,11.20
2019-03-03T09:43:18.580Z,11.30
2019-03-03T09:46:03.578Z,11.30
2019-03-03T09:48:59.880Z,11.30
2019-03-03T09:51:50.237Z,11.40
2019-03-03T09:54:29.732Z,11.40
2019-03-03T09:57:07.145Z,11.40
2019-03-03T09:59:51.730Z,11.50
2019-03-03T10:02:41.908Z,11.50
2019-03-03T10:05:30.113Z,11.50
2019-03-03T10:08:26.569Z,11.50
2019-03-03T10:11:13.644Z,11.50
2019-03-03T10:14:13.044Z,11.60
2019-03-03T10:16:59.036Z,11.40
2019-03-03T10:19:45.082Z,11.60
2019-03-03T10:22:31.107Z,11.70
2019-03-03T10:25:17.138Z,11.80
2019-03-03T10:28:07.330Z,11.80
2019-03-03T10:31:09.642Z,11.80
2019-03-03T10:34:11.714Z,11.80
2019-03-03T10:37:03.536Z,11.80
2019-03-03T10:39:56.814Z,12.00
2019-03-03T10:42:32.633Z,12.20
2019-03-03T10:45:22.832Z,12.30
2019-03-03T10:48:03.647Z,12.50
2019-03-03T10:50:52.556Z,12.80
2019-03-03T10:53:45.794Z,13.00
2019-03-03T10:56:33.781Z,13.10
2019-03-03T10:59:19.345Z,13.40
2019-03-03T11:02:06.206Z,13.30
2019-03-03T11:04:56.349Z,13.30
2019-03-03T11:07:40.092Z,13.40
2019-03-03T11:10:16.405Z,13.40
2019-03-03T11:13:11.329Z,13.30
2019-03-03T11:15:58.638Z,13.10
2019-03-03T11:18:56.059Z,12.70
2019-03-03T11:21:47.243Z,12.60
2019-03-03T11:24:43.705Z,12.60
2019-03-03T11:27:37.583Z,12.60
2019-03-03T11:30:25.093Z,12.60
2019-03-03T11:33:24.570Z,12.60
2019-03-03T11:36:23.996Z,12.60
2019-03-03T11:39:08.455Z,12.70
2019-03-03T11:41:47.155Z,12.60
2019-03-03T11:44:34.290Z,12.70
2019-03-03T11:47:11.658Z,12.60
2019-03-03T11:50:17.188Z,12.60
2019-03-03T11:52:53.953Z,12.60
2019-03-03T11:55:29.347Z,12.70
2019-03-03T11:58:15.329Z,12.80
2019-03-03T12:01:11.653Z,12.80
2019-03-03T12:03:59.789Z,12.70
2019-03-03T12:06:44.526Z,12.70
2019-03-03T12:09:27.234Z,12.50
2019-03-03T12:12:13.536Z,12.50
2019-03-03T12:14:50.831Z,12.50
2019-03-03T12:17:40.399Z,12.50
2019-03-03T12:20:23.639Z,12.40
2019-03-03T12:23:17.080Z,12.20
2019-03-03T12:26:03.559Z,12.20
2019-03-03T12:28:51.022Z,12.00
2019-03-03T12:31:51.946Z,12.30
2019-03-03T12:34:51.608Z,12.30
2019-03-03T12:37:55.611Z,12.40
2019-03-03T12:40:48.244Z,12.30
2019-03-03T12:43:41.567Z,12.20
2019-03-03T12:46:34.922Z,11.90
2019-03-03T12:49:14.235Z,12.10
2019-03-03T12:52:13.455Z,12.20
2019-03-03T12:55:06.692Z,12.10
2019-03-03T12:57:56.181Z,12.30
2019-03-03T13:00:47.124Z,12.20
2019-03-03T13:03:33.184Z,12.40
2019-03-03T13:06:24.338Z,12.40
2019-03-03T13:09:19.675Z,12.40
2019-03-03T13:12:07.017Z,12.40
2019-03-03T13:15:00.424Z,12.40
2019-03-03T13:17:48.167Z,12.40
2019-03-03T13:20:50.775Z,12.30
2019-03-03T13:23:52.939Z,12.20
2019-03-03T13:26:28.260Z,12.20
2019-03-03T13:29:18.853Z,12.20
2019-03-03T13:32:05.973Z,12.20
2019-03-03T13:34:52.585Z,12.30
2019-03-03T13:37:42.951Z,12.40
2019-03-03T13:40:36.350Z,12.40
2019-03-03T13:43:04.213Z,12.50
2019-03-03T13:45:33.511Z,12.30
2019-03-03T13:48:02.587Z,12.40
2019-03-03T13:50:30.742Z,12.50
2019-03-03T13:52:59.419Z,12.50
2019-03-03T13:55:28.074Z,12.50
2019-03-03T13:57:57.117Z,12.60
2019-03-03T14:00:25.317Z,12.50
2019-03-03T14:02:53.328Z,12.40
2019-03-03T14:05:22.799Z,12.40
2019-03-03T14:07:51.150Z,12.20
2019-03-03T14:10:19.503Z,12.20
2019-03-03T14:12:47.335Z,12.20
2019-03-03T14:15:15.990Z,12.10
2019-03-03T14:17:43.922Z,12.10
2019-03-03T14:20:14.310Z,12.10
2019-03-03T14:22:42.049Z,12.10
2019-03-03T14:25:10.555Z,12.10
2019-03-03T14:27:38.294Z,12.00
2019-03-03T14:30:29.682Z,12.00
2019-03-03T14:33:23.191Z,12.10
2019-03-03T14:35:50.901Z,12.20
2019-03-03T14:38:18.536Z,12.10
2019-03-03T14:40:46.438Z,12.20
2019-03-03T14:43:14.074Z,12.20
2019-03-03T14:45:41.709Z,12.20
2019-03-03T14:49:00.992Z,12.20
2019-03-03T14:51:29.121Z,12.10
2019-03-03T14:53:56.934Z,12.10
2019-03-03T14:56:24.736Z,12.20
2019-03-03T14:58:52.357Z,12.10
2019-03-03T15:01:20.087Z,12.20
2019-03-03T15:03:47.753Z,12.30
2019-03-03T15:06:24.230Z,12.30
2019-03-03T15:08:56.804Z,12.30
2019-03-03T15:11:24.761Z,12.30
2019-03-03T15:13:53.047Z,12.30
2019-03-03T15:16:20.960Z,12.30
2019-03-03T15:18:49.137Z,12.20
2019-03-03T15:21:24.714Z,12.20
2019-03-03T15:23:46.865Z,12.10
2019-03-03T15:26:14.738Z,12.00
2019-03-03T15:28:42.493Z,12.00
2019-03-03T15:31:10.291Z,12.00
2019-03-03T15:33:38.184Z,12.00
2019-03-03T15:36:06.527Z,12.00
2019-03-03T15:38:34.444Z,12.00
2019-03-03T15:41:03.495Z,12.10
2019-03-03T15:43:32.346Z,12.00
2019-03-03T15:46:01.000Z,12.00
2019-03-03T15:48:28.601Z,12.00
2019-03-03T15:50:56.275Z,12.00
2019-03-03T15:53:23.918Z,12.00
2019-03-03T15:55:51.829Z,12.10
2019-03-03T15:58:19.630Z,12.10
2019-03-03T16:01:20.122Z,12.10
2019-03-03T16:03:47.784Z,12.00
2019-03-03T16:06:47.874Z,12.00
2019-03-03T16:09:15.855Z,12.00
2019-03-03T16:11:43.710Z,12.00
2019-03-03T16:14:11.633Z,12.00
2019-03-03T16:16:39.452Z,12.00
2019-03-03T16:19:07.240Z,12.00
2019-03-03T16:21:35.237Z,12.10
2019-03-03T16:24:03.354Z,12.00
2019-03-03T16:26:32.228Z,12.00
2019-03-03T16:28:59.910Z,12.00
2019-03-03T16:31:27.701Z,12.00
2019-03-03T16:33:55.637Z,12.00
2019-03-03T16:36:23.400Z,12.00
2019-03-03T16:38:52.204Z,12.00
2019-03-03T16:41:20.063Z,12.00
2019-03-03T16:43:49.055Z,12.00
2019-03-03T16:46:16.788Z,12.00
2019-03-03T16:48:44.455Z,12.00
2019-03-03T16:51:12.202Z,12.00
2019-03-03T16:53:57.173Z,12.00
2019-03-03T16:56:24.822Z,12.00
2019-03-03T16:58:52.439Z,12.00
2019-03-03T17:01:20.114Z,11.90
2019-03-03T17:03:47.799Z,11.90
2019-03-03T17:06:15.538Z,11.90
2019-03-03T17:08:43.245Z,12.00
2019-03-03T17:11:11.077Z,12.00
2019-03-03T17:13:38.767Z,12.00
2019-03-03T17:19:57.169Z,12.00
2019-03-03T17:22:24.798Z,12.00
2019-03-03T17:24:59.735Z,12.00
2019-03-03T17:27:27.642Z,12.00
2019-03-03T17:29:55.977Z,12.00
2019-03-03T17:32:23.834Z,12.10
2019-03-03T17:34:51.753Z,12.10
2019-03-03T17:37:22.133Z,12.00
2019-03-03T17:39:49.922Z,12.10
2019-03-03T17:42:17.568Z,12.00
2019-03-03T17:44:45.337Z,12.10
2019-03-03T17:47:13.338Z,12.00
2019-03-03T17:49:41.123Z,12.10
2019-03-03T17:52:08.779Z,12.10
2019-03-03T17:54:36.404Z,12.00
2019-03-03T17:57:04.384Z,12.00
2019-03-03T17:59:32.065Z,12.10
2019-03-03T18:02:05.320Z,12.10
2019-03-03T18:04:33.097Z,12.10
2019-03-03T18:07:00.819Z,12.00
2019-03-03T18:09:28.565Z,12.00
2019-03-03T18:11:56.239Z,12.00
2019-03-03T18:14:24.109Z,12.00
2019-03-03T18:16:51.747Z,12.00
2019-03-03T18:19:19.516Z,12.00
2019-03-03T18:21:47.224Z,12.00
2019-03-03T18:24:15.094Z,12.00
2019-03-03T18:26:42.768Z,12.00
2019-03-03T18:29:10.451Z,12.00
2019-03-03T18:31:38.188Z,12.00
2019-03-03T18:34:05.855Z,12.00
2019-03-03T18:36:33.516Z,12.00
2019-03-03T18:39:01.178Z,12.00
2019-03-03T18:41:30.718Z,12.00
2019-03-03T18:43:58.404Z,12.00
2019-03-03T18:46:26.089Z,12.00
2019-03-03T18:48:53.896Z,12.10
2019-03-03T18:51:46.151Z,12.10
2019-03-03T18:54:15.722Z,12.10
2019-03-03T18:56:43.359Z,12.10
2019-03-03T18:59:11.547Z,12.10
2019-03-03T19:01:39.400Z,12.10
2019-03-03T19:04:07.072Z,12.10
2019-03-03T19:06:35.047Z,12.10
2019-03-03T19:09:04.494Z,12.10
2019-03-03T19:11:33.955Z,12.10
2019-03-03T19:14:02.247Z,12.10
2019-03-03T19:16:30.093Z,12.20
2019-03-03T19:18:57.859Z,12.20
2019-03-03T19:21:25.626Z,12.10
2019-03-03T19:23:54.335Z,12.10
2019-03-03T19:26:22.075Z,12.10
2019-03-03T19:28:50.022Z,12.10
2019-03-03T19:31:17.889Z,12.10
2019-03-03T19:33:48.932Z,12.00
2019-03-03T19:36:16.722Z,12.00
2019-03-03T19:38:44.514Z,12.00
2019-03-03T19:41:12.510Z,12.10
2019-03-03T19:43:40.230Z,12.00
2019-03-03T19:46:08.062Z,12.00
2019-03-03T19:48:36.013Z,11.90
2019-03-03T19:51:04.409Z,11.90
2019-03-03T19:53:32.286Z,12.00
2019-03-03T19:55:59.908Z,12.00
2019-03-03T19:58:27.707Z,12.00
2019-03-03T20:00:55.366Z,12.00
2019-03-03T20:03:23.355Z,12.00
2019-03-03T20:05:51.138Z,12.00
2019-03-03T20:08:18.913Z,11.90
2019-03-03T20:10:46.675Z,12.00
2019-03-03T20:13:15.902Z,12.00
2019-03-03T20:15:44.029Z,11.90
2019-03-03T20:18:13.443Z,11.90
2019-03-03T20:20:41.271Z,11.90
2019-03-03T20:23:09.073Z,11.90
2019-03-03T20:25:37.091Z,11.90
2019-03-03T20:28:05.957Z,11.90
2019-03-03T20:30:33.849Z,11.90
2019-03-03T20:33:01.586Z,11.90
2019-03-03T20:35:30.689Z,11.90
2019-03-03T20:37:58.781Z,11.80
2019-03-03T20:40:26.774Z,11.80
2019-03-03T20:42:54.557Z,11.80
2019-03-03T20:45:23.063Z,11.80
2019-03-03T20:47:50.894Z,11.80
2019-03-03T20:50:19.522Z,11.80
2019-03-03T20:52:47.289Z,11.80
2019-03-03T20:55:16.490Z,11.70
2019-03-03T20:57:44.208Z,11.70
2019-03-03T21:00:18.301Z,11.80
2019-03-03T21:02:46.002Z,11.80
2019-03-03T21:05:13.790Z,11.70
2019-03-03T21:07:50.601Z,11.80
2019-03-03T21:10:13.552Z,11.80
2019-03-03T21:12:41.255Z,11.80
2019-03-03T21:15:09.060Z,11.80
2019-03-03T21:17:36.751Z,11.80
2019-03-03T21:20:05.605Z,11.80
2019-03-03T21:22:33.405Z,11.90
2019-03-03T21:25:01.179Z,11.80
2019-03-03T21:27:29.012Z,11.80
2019-03-03T21:29:56.704Z,11.80
2019-03-03T21:32:24.424Z,11.80
2019-03-03T21:34:52.124Z,11.80
2019-03-03T21:37:19.884Z,11.80
2019-03-03T21:39:47.502Z,11.80
2019-03-03T21:42:15.336Z,11.80
2019-03-03T21:44:43.202Z,11.80
2019-03-03T21:47:11.001Z,11.80
2019-03-03T21:49:38.727Z,11.80
2019-03-03T21:52:06.664Z,11.80
2019-03-03T21:54:34.394Z,11.80
2019-03-03T21:57:02.364Z,11.80
2019-03-03T21:59:31.229Z,11.80
2019-03-03T22:01:58.914Z,11.80
2019-03-03T22:04:26.644Z,11.80
2019-03-03T22:06:54.358Z,11.80
2019-03-03T22:09:22.102Z,11.80
2019-03-03T22:12:02.770Z,11.70
2019-03-03T22:14:30.791Z,11.60
2019-03-03T22:16:58.600Z,11.50
2019-03-03T22:19:26.465Z,11.50
2019-03-03T22:21:54.459Z,11.50
2019-03-03T22:24:22.311Z,11.50
2019-03-03T22:26:51.094Z,11.50
2019-03-03T22:29:19.225Z,11.50
2019-03-03T22:31:46.895Z,11.50
2019-03-03T22:34:14.742Z,11.60
2019-03-03T22:36:42.606Z,11.50
2019-03-03T22:39:10.611Z,11.50
2019-03-03T22:41:38.902Z,11.50
2019-03-03T22:44:06.650Z,11.50
2019-03-03T22:46:34.641Z,11.50
2019-03-03T22:49:02.518Z,11.50
2019-03-03T22:51:31.578Z,11.40
2019-03-03T22:54:02.614Z,11.40
2019-03-03T22:56:30.371Z,11.40
2019-03-03T22:58:58.059Z,11.30
2019-03-03T23:01:29.935Z,11.30
2019-03-03T23:04:32.417Z,11.30
2019-03-03T23:07:19.440Z,11.20
2019-03-03T23:10:29.031Z,11.30
2019-03-03T23:13:43.251Z,11.30
2019-03-03T23:16:37.244Z,11.30
2019-03-03T23:20:05.330Z,11.30
2019-03-03T23:23:11.982Z,11.30
2019-03-03T23:25:48.686Z,11.30
2019-03-03T23:28:17.853Z,11.30
2019-03-03T23:30:46.653Z,11.20
2019-03-03T23:33:14.694Z,11.20
2019-03-03T23:35:42.448Z,11.20
2019-03-03T23:38:10.144Z,11.20
2019-03-03T23:40:37.895Z,11.30
2019-03-03T23:43:06.204Z,11.40
2019-03-03T23:45:34.916Z,11.40
2019-03-03T23:48:02.799Z,11.50
2019-03-03T23:50:30.497Z,11.50
2019-03-03T23:52:58.215Z,11.60
2019-03-03T23:55:25.770Z,11.70
2019-03-03T23:57:53.558Z,11.70
